sensor_id;sensor_type;location;lat;lon;timestamp;P1;durP1;ratioP1;P2;durP2;ratioP2
65047;SDS011;52089;51.362;-2.384;2022-10-15T00:02:52;6.63;;;3.60;;
65047;SDS011;52089;51.362;-2.384;2022-10-15T00:06:34;7.13;;;3.17;;
65047;SDS011;52089;51.362;-2.384;2022-10-15T00:10:18;6.30;;;2.90;;
65047;SDS011;52089;51.362;-2.384;2022-10-15T00:14:00;6.57;;;2.90;;
65047;SDS011;52089;51.362;-2.384;2022-10-15T00:17:42;7.40;;;3.20;;
65047;SDS011;52089;51.362;-2.384;2022-10-15T00:21:24;10.47;;;3.53;;
65047;SDS011;52089;51.362;-2.384;2022-10-15T00:25:06;7.67;;;3.70;;
65047;SDS011;52089;51.362;-2.384;2022-10-15T00:28:50;5.63;;;3.10;;
65047;SDS011;52089;51.362;-2.384;2022-10-15T00:32:33;7.27;;;3.10;;
65047;SDS011;52089;51.362;-2.384;2022-10-15T00:36:16;6.40;;;3.20;;
65047;SDS011;52089;51.362;-2.384;2022-10-15T00:39:59;7.57;;;3.17;;
65047;SDS011;52089;51.362;-2.384;2022-10-15T00:43:47;6.83;;;3.03;;
65047;SDS011;52089;51.362;-2.384;2022-10-15T00:47:36;9.60;;;2.93;;
65047;SDS011;52089;51.362;-2.384;2022-10-15T00:51:21;7.07;;;3.40;;
65047;SDS011;52089;51.362;-2.384;2022-10-15T00:58:54;8.30;;;2.67;;
65047;SDS011;52089;51.362;-2.384;2022-10-15T01:02:37;6.73;;;2.43;;
65047;SDS011;52089;51.362;-2.384;2022-10-15T01:06:19;7.73;;;2.60;;
65047;SDS011;52089;51.362;-2.384;2022-10-15T01:10:01;8.13;;;2.70;;
65047;SDS011;52089;51.362;-2.384;2022-10-15T01:17:44;8.43;;;2.30;;
65047;SDS011;52089;51.362;-2.384;2022-10-15T01:21:33;6.33;;;2.10;;
65047;SDS011;52089;51.362;-2.384;2022-10-15T01:41:13;9.90;;;2.27;;
65047;SDS011;52089;51.362;-2.384;2022-10-15T01:45:06;6.80;;;1.83;;
65047;SDS011;52089;51.362;-2.384;2022-10-15T01:48:51;9.90;;;1.93;;
65047;SDS011;52089;51.362;-2.384;2022-10-15T01:52:35;6.20;;;1.87;;
65047;SDS011;52089;51.362;-2.384;2022-10-15T01:56:20;7.40;;;1.80;;
65047;SDS011;52089;51.362;-2.384;2022-10-15T02:00:04;7.23;;;2.00;;
65047;SDS011;52089;51.362;-2.384;2022-10-15T02:03:48;7.50;;;2.10;;
65047;SDS011;52089;51.362;-2.384;2022-10-15T02:07:43;8.27;;;2.10;;
65047;SDS011;52089;51.362;-2.384;2022-10-15T02:11:39;6.63;;;1.90;;
65047;SDS011;52089;51.362;-2.384;2022-10-15T02:19:45;10.87;;;2.23;;
65047;SDS011;52089;51.362;-2.384;2022-10-15T02:23:42;6.90;;;1.77;;
65047;SDS011;52089;51.362;-2.384;2022-10-15T02:27:55;5.57;;;1.83;;
65047;SDS011;52089;51.362;-2.384;2022-10-15T02:31:40;6.03;;;2.00;;
65047;SDS011;52089;51.362;-2.384;2022-10-15T02:35:25;4.63;;;1.63;;
65047;SDS011;52089;51.362;-2.384;2022-10-15T02:39:12;5.10;;;1.80;;
65047;SDS011;52089;51.362;-2.384;2022-10-15T02:42:58;7.50;;;2.30;;
65047;SDS011;52089;51.362;-2.384;2022-10-15T02:46:41;6.90;;;1.70;;
65047;SDS011;52089;51.362;-2.384;2022-10-15T02:50:22;7.07;;;2.20;;
65047;SDS011;52089;51.362;-2.384;2022-10-15T02:54:05;5.93;;;1.90;;
65047;SDS011;52089;51.362;-2.384;2022-10-15T02:57:47;5.10;;;1.60;;
65047;SDS011;52089;51.362;-2.384;2022-10-15T03:01:29;5.87;;;1.93;;
65047;SDS011;52089;51.362;-2.384;2022-10-15T03:05:11;5.63;;;2.33;;
65047;SDS011;52089;51.362;-2.384;2022-10-15T03:08:53;6.13;;;1.90;;
65047;SDS011;52089;51.362;-2.384;2022-10-15T03:12:34;9.57;;;2.43;;
65047;SDS011;52089;51.362;-2.384;2022-10-15T03:16:16;6.03;;;2.33;;
65047;SDS011;52089;51.362;-2.384;2022-10-15T03:19:58;7.17;;;2.80;;
65047;SDS011;52089;51.362;-2.384;2022-10-15T03:23:40;6.23;;;2.87;;
65047;SDS011;52089;51.362;-2.384;2022-10-15T03:27:22;6.23;;;3.33;;
65047;SDS011;52089;51.362;-2.384;2022-10-15T03:31:05;7.27;;;2.90;;
65047;SDS011;52089;51.362;-2.384;2022-10-15T03:34:47;7.37;;;2.67;;
65047;SDS011;52089;51.362;-2.384;2022-10-15T03:38:29;6.80;;;2.80;;
65047;SDS011;52089;51.362;-2.384;2022-10-15T03:42:10;5.47;;;2.80;;
65047;SDS011;52089;51.362;-2.384;2022-10-15T03:45:52;6.57;;;2.97;;
65047;SDS011;52089;51.362;-2.384;2022-10-15T03:49:34;6.20;;;3.23;;
65047;SDS011;52089;51.362;-2.384;2022-10-15T03:53:16;5.07;;;2.70;;
65047;SDS011;52089;51.362;-2.384;2022-10-15T03:56:58;8.43;;;2.97;;
65047;SDS011;52089;51.362;-2.384;2022-10-15T04:00:40;5.87;;;3.07;;
65047;SDS011;52089;51.362;-2.384;2022-10-15T04:04:24;4.30;;;1.77;;
65047;SDS011;52089;51.362;-2.384;2022-10-15T04:08:06;5.53;;;1.97;;
65047;SDS011;52089;51.362;-2.384;2022-10-15T04:11:47;4.63;;;1.53;;
65047;SDS011;52089;51.362;-2.384;2022-10-15T04:15:29;6.30;;;1.60;;
65047;SDS011;52089;51.362;-2.384;2022-10-15T04:19:11;4.30;;;1.30;;
65047;SDS011;52089;51.362;-2.384;2022-10-15T04:22:53;4.20;;;0.90;;
65047;SDS011;52089;51.362;-2.384;2022-10-15T04:26:34;3.33;;;1.00;;
65047;SDS011;52089;51.362;-2.384;2022-10-15T04:30:16;1.80;;;0.97;;
65047;SDS011;52089;51.362;-2.384;2022-10-15T04:33:58;3.87;;;1.33;;
65047;SDS011;52089;51.362;-2.384;2022-10-15T04:37:40;2.90;;;1.20;;
65047;SDS011;52089;51.362;-2.384;2022-10-15T04:41:22;3.60;;;1.20;;
65047;SDS011;52089;51.362;-2.384;2022-10-15T04:45:04;3.53;;;1.00;;
65047;SDS011;52089;51.362;-2.384;2022-10-15T04:48:47;5.50;;;1.20;;
65047;SDS011;52089;51.362;-2.384;2022-10-15T04:52:28;3.67;;;0.90;;
65047;SDS011;52089;51.362;-2.384;2022-10-15T04:56:12;3.57;;;0.80;;
65047;SDS011;52089;51.362;-2.384;2022-10-15T04:59:55;2.67;;;0.77;;
65047;SDS011;52089;51.362;-2.384;2022-10-15T05:03:38;1.70;;;0.90;;
65047;SDS011;52089;51.362;-2.384;2022-10-15T05:07:25;2.20;;;0.70;;
65047;SDS011;52089;51.362;-2.384;2022-10-15T05:11:08;2.50;;;0.50;;
65047;SDS011;52089;51.362;-2.384;2022-10-15T05:14:54;1.10;;;0.50;;
65047;SDS011;52089;51.362;-2.384;2022-10-15T05:18:36;1.40;;;0.60;;
65047;SDS011;52089;51.362;-2.384;2022-10-15T05:22:19;2.67;;;0.70;;
65047;SDS011;52089;51.362;-2.384;2022-10-15T05:26:02;2.60;;;0.50;;
65047;SDS011;52089;51.362;-2.384;2022-10-15T05:29:48;1.57;;;0.50;;
65047;SDS011;52089;51.362;-2.384;2022-10-15T05:33:29;1.17;;;0.40;;
65047;SDS011;52089;51.362;-2.384;2022-10-15T05:37:13;2.00;;;0.40;;
65047;SDS011;52089;51.362;-2.384;2022-10-15T05:40:54;1.13;;;0.40;;
65047;SDS011;52089;51.362;-2.384;2022-10-15T05:44:36;0.80;;;0.30;;
65047;SDS011;52089;51.362;-2.384;2022-10-15T05:48:18;1.60;;;0.37;;
65047;SDS011;52089;51.362;-2.384;2022-10-15T05:52:00;1.30;;;0.30;;
65047;SDS011;52089;51.362;-2.384;2022-10-15T05:55:42;0.73;;;0.27;;
65047;SDS011;52089;51.362;-2.384;2022-10-15T05:59:23;1.23;;;0.40;;
65047;SDS011;52089;51.362;-2.384;2022-10-15T06:03:05;2.27;;;0.50;;
65047;SDS011;52089;51.362;-2.384;2022-10-15T06:06:51;1.73;;;0.30;;
65047;SDS011;52089;51.362;-2.384;2022-10-15T06:10:36;2.80;;;0.30;;
65047;SDS011;52089;51.362;-2.384;2022-10-15T06:14:18;0.83;;;0.20;;
65047;SDS011;52089;51.362;-2.384;2022-10-15T06:18:00;0.83;;;0.30;;
65047;SDS011;52089;51.362;-2.384;2022-10-15T06:21:44;2.93;;;0.30;;
65047;SDS011;52089;51.362;-2.384;2022-10-15T06:25:26;0.70;;;0.40;;
65047;SDS011;52089;51.362;-2.384;2022-10-15T06:29:08;2.47;;;0.50;;
65047;SDS011;52089;51.362;-2.384;2022-10-15T06:32:51;0.80;;;0.40;;
65047;SDS011;52089;51.362;-2.384;2022-10-15T06:36:33;1.47;;;0.30;;
65047;SDS011;52089;51.362;-2.384;2022-10-15T06:40:16;1.00;;;0.50;;
65047;SDS011;52089;51.362;-2.384;2022-10-15T06:44:00;3.83;;;0.50;;
65047;SDS011;52089;51.362;-2.384;2022-10-15T06:47:42;1.43;;;0.50;;
65047;SDS011;52089;51.362;-2.384;2022-10-15T06:51:24;1.97;;;0.90;;
65047;SDS011;52089;51.362;-2.384;2022-10-15T06:55:08;2.10;;;0.70;;
65047;SDS011;52089;51.362;-2.384;2022-10-15T06:58:50;1.23;;;0.70;;
65047;SDS011;52089;51.362;-2.384;2022-10-15T07:02:33;1.50;;;0.70;;
65047;SDS011;52089;51.362;-2.384;2022-10-15T07:06:16;2.00;;;0.50;;
65047;SDS011;52089;51.362;-2.384;2022-10-15T07:09:58;2.90;;;0.53;;
65047;SDS011;52089;51.362;-2.384;2022-10-15T07:13:40;2.67;;;0.60;;
65047;SDS011;52089;51.362;-2.384;2022-10-15T07:17:24;2.67;;;0.50;;
65047;SDS011;52089;51.362;-2.384;2022-10-15T07:21:06;2.17;;;0.40;;
65047;SDS011;52089;51.362;-2.384;2022-10-15T07:24:54;2.90;;;0.50;;
65047;SDS011;52089;51.362;-2.384;2022-10-15T07:28:36;2.97;;;0.40;;
65047;SDS011;52089;51.362;-2.384;2022-10-15T07:32:18;3.00;;;0.63;;
65047;SDS011;52089;51.362;-2.384;2022-10-15T07:36:07;2.17;;;0.40;;
65047;SDS011;52089;51.362;-2.384;2022-10-15T07:39:50;1.42;;;0.40;;
65047;SDS011;52089;51.362;-2.384;2022-10-15T07:43:32;0.90;;;0.20;;
65047;SDS011;52089;51.362;-2.384;2022-10-15T07:47:15;1.37;;;0.30;;
65047;SDS011;52089;51.362;-2.384;2022-10-15T07:50:58;3.13;;;0.30;;
65047;SDS011;52089;51.362;-2.384;2022-10-15T07:54:45;4.37;;;0.47;;
65047;SDS011;52089;51.362;-2.384;2022-10-15T07:58:27;0.77;;;0.20;;
65047;SDS011;52089;51.362;-2.384;2022-10-15T08:02:13;2.13;;;0.30;;
65047;SDS011;52089;51.362;-2.384;2022-10-15T08:05:59;6.17;;;3.20;;
65047;SDS011;52089;51.362;-2.384;2022-10-15T08:09:45;2.83;;;0.70;;
65047;SDS011;52089;51.362;-2.384;2022-10-15T08:13:27;3.63;;;0.30;;
65047;SDS011;52089;51.362;-2.384;2022-10-15T08:17:09;2.87;;;0.40;;
65047;SDS011;52089;51.362;-2.384;2022-10-15T08:20:51;2.57;;;0.40;;
65047;SDS011;52089;51.362;-2.384;2022-10-15T08:24:33;1.40;;;0.30;;
65047;SDS011;52089;51.362;-2.384;2022-10-15T08:28:15;2.30;;;0.20;;
65047;SDS011;52089;51.362;-2.384;2022-10-15T08:31:57;1.83;;;0.30;;
65047;SDS011;52089;51.362;-2.384;2022-10-15T08:35:39;1.40;;;0.20;;
65047;SDS011;52089;51.362;-2.384;2022-10-15T08:39:23;3.03;;;0.47;;
65047;SDS011;52089;51.362;-2.384;2022-10-15T08:43:05;2.17;;;0.30;;
65047;SDS011;52089;51.362;-2.384;2022-10-15T08:47:01;2.37;;;0.30;;
65047;SDS011;52089;51.362;-2.384;2022-10-15T08:51:09;2.37;;;0.40;;
65047;SDS011;52089;51.362;-2.384;2022-10-15T08:54:54;2.07;;;0.27;;
65047;SDS011;52089;51.362;-2.384;2022-10-15T08:58:45;2.45;;;0.35;;
65047;SDS011;52089;51.362;-2.384;2022-10-15T09:02:42;2.50;;;0.40;;
65047;SDS011;52089;51.362;-2.384;2022-10-15T09:06:35;2.67;;;0.23;;
65047;SDS011;52089;51.362;-2.384;2022-10-15T09:14:20;2.35;;;0.47;;
65047;SDS011;52089;51.362;-2.384;2022-10-15T09:18:09;1.43;;;0.20;;
65047;SDS011;52089;51.362;-2.384;2022-10-15T09:21:59;2.53;;;0.30;;
65047;SDS011;52089;51.362;-2.384;2022-10-15T09:25:43;2.63;;;0.40;;
65047;SDS011;52089;51.362;-2.384;2022-10-15T09:37:24;3.00;;;0.30;;
65047;SDS011;52089;51.362;-2.384;2022-10-15T09:45:01;1.63;;;0.40;;
65047;SDS011;52089;51.362;-2.384;2022-10-15T09:48:53;2.30;;;0.40;;
65047;SDS011;52089;51.362;-2.384;2022-10-15T09:53:18;0.87;;;0.20;;
65047;SDS011;52089;51.362;-2.384;2022-10-15T09:57:13;1.93;;;0.30;;
65047;SDS011;52089;51.362;-2.384;2022-10-15T10:04:49;3.17;;;0.33;;
65047;SDS011;52089;51.362;-2.384;2022-10-15T10:08:36;2.40;;;0.50;;
65047;SDS011;52089;51.362;-2.384;2022-10-15T10:12:27;4.70;;;0.40;;
65047;SDS011;52089;51.362;-2.384;2022-10-15T10:16:12;2.73;;;0.50;;
65047;SDS011;52089;51.362;-2.384;2022-10-15T10:23:50;4.10;;;0.70;;
65047;SDS011;52089;51.362;-2.384;2022-10-15T10:27:32;4.27;;;0.60;;
65047;SDS011;52089;51.362;-2.384;2022-10-15T10:31:14;3.90;;;0.50;;
65047;SDS011;52089;51.362;-2.384;2022-10-15T10:34:56;3.53;;;0.50;;
65047;SDS011;52089;51.362;-2.384;2022-10-15T10:38:39;6.13;;;1.40;;
65047;SDS011;52089;51.362;-2.384;2022-10-15T10:42:22;4.77;;;1.13;;
65047;SDS011;52089;51.362;-2.384;2022-10-15T10:49:56;5.13;;;0.77;;
65047;SDS011;52089;51.362;-2.384;2022-10-15T10:53:41;4.97;;;0.63;;
65047;SDS011;52089;51.362;-2.384;2022-10-15T10:57:37;3.40;;;0.60;;
65047;SDS011;52089;51.362;-2.384;2022-10-15T11:01:25;4.30;;;0.63;;
65047;SDS011;52089;51.362;-2.384;2022-10-15T11:05:10;4.80;;;0.50;;
65047;SDS011;52089;51.362;-2.384;2022-10-15T11:12:49;3.67;;;0.60;;
65047;SDS011;52089;51.362;-2.384;2022-10-15T11:25:22;3.30;;;0.80;;
65047;SDS011;52089;51.362;-2.384;2022-10-15T11:29:12;4.18;;;0.80;;
65047;SDS011;52089;51.362;-2.384;2022-10-15T11:41:48;4.13;;;0.93;;
65047;SDS011;52089;51.362;-2.384;2022-10-15T11:46:11;5.97;;;1.00;;
65047;SDS011;52089;51.362;-2.384;2022-10-15T11:50:14;4.20;;;0.60;;
65047;SDS011;52089;51.362;-2.384;2022-10-15T11:54:15;5.83;;;0.80;;
65047;SDS011;52089;51.362;-2.384;2022-10-15T12:01:54;4.80;;;0.70;;
65047;SDS011;52089;51.362;-2.384;2022-10-15T12:05:49;4.43;;;0.70;;
65047;SDS011;52089;51.362;-2.384;2022-10-15T12:09:40;2.60;;;0.60;;
65047;SDS011;52089;51.362;-2.384;2022-10-15T12:17:39;4.75;;;0.70;;
65047;SDS011;52089;51.362;-2.384;2022-10-15T12:21:37;3.70;;;0.60;;
65047;SDS011;52089;51.362;-2.384;2022-10-15T12:29:19;5.83;;;1.33;;
65047;SDS011;52089;51.362;-2.384;2022-10-15T12:33:22;4.43;;;0.87;;
65047;SDS011;52089;51.362;-2.384;2022-10-15T12:37:15;5.45;;;0.90;;
65047;SDS011;52089;51.362;-2.384;2022-10-15T12:41:22;5.53;;;0.70;;
65047;SDS011;52089;51.362;-2.384;2022-10-15T12:45:01;4.23;;;0.90;;
65047;SDS011;52089;51.362;-2.384;2022-10-15T12:48:46;5.60;;;1.03;;
65047;SDS011;52089;51.362;-2.384;2022-10-15T12:56:36;4.97;;;1.10;;
65047;SDS011;52089;51.362;-2.384;2022-10-15T13:04:07;5.13;;;1.00;;
65047;SDS011;52089;51.362;-2.384;2022-10-15T13:07:49;10.23;;;1.30;;
65047;SDS011;52089;51.362;-2.384;2022-10-15T13:11:37;7.33;;;1.53;;
65047;SDS011;52089;51.362;-2.384;2022-10-15T13:15:26;6.60;;;1.00;;
65047;SDS011;52089;51.362;-2.384;2022-10-15T13:19:16;6.00;;;1.02;;
65047;SDS011;52089;51.362;-2.384;2022-10-15T13:23:15;6.75;;;0.95;;
65047;SDS011;52089;51.362;-2.384;2022-10-15T13:27:15;6.22;;;1.60;;
65047;SDS011;52089;51.362;-2.384;2022-10-15T13:35:08;6.43;;;1.33;;
65047;SDS011;52089;51.362;-2.384;2022-10-15T13:38:54;8.43;;;1.10;;
65047;SDS011;52089;51.362;-2.384;2022-10-15T13:42:39;6.47;;;1.20;;
65047;SDS011;52089;51.362;-2.384;2022-10-15T13:46:44;11.07;;;1.40;;
65047;SDS011;52089;51.362;-2.384;2022-10-15T13:50:30;8.00;;;1.20;;
65047;SDS011;52089;51.362;-2.384;2022-10-15T13:54:15;7.10;;;1.50;;
65047;SDS011;52089;51.362;-2.384;2022-10-15T14:02:18;6.57;;;1.65;;
65047;SDS011;52089;51.362;-2.384;2022-10-15T14:06:14;5.80;;;1.10;;
65047;SDS011;52089;51.362;-2.384;2022-10-15T14:10:07;6.55;;;1.13;;
65047;SDS011;52089;51.362;-2.384;2022-10-15T14:13:50;5.53;;;1.00;;
65047;SDS011;52089;51.362;-2.384;2022-10-15T14:17:34;4.40;;;1.10;;
65047;SDS011;52089;51.362;-2.384;2022-10-15T14:21:17;5.67;;;1.17;;
65047;SDS011;52089;51.362;-2.384;2022-10-15T14:25:03;6.57;;;1.13;;
65047;SDS011;52089;51.362;-2.384;2022-10-15T14:28:50;6.47;;;1.53;;
65047;SDS011;52089;51.362;-2.384;2022-10-15T14:32:46;7.43;;;1.63;;
65047;SDS011;52089;51.362;-2.384;2022-10-15T14:36:39;7.63;;;1.20;;
65047;SDS011;52089;51.362;-2.384;2022-10-15T14:40:22;9.30;;;1.40;;
65047;SDS011;52089;51.362;-2.384;2022-10-15T14:44:14;9.27;;;1.33;;
65047;SDS011;52089;51.362;-2.384;2022-10-15T14:48:01;9.00;;;1.40;;
65047;SDS011;52089;51.362;-2.384;2022-10-15T14:51:53;6.43;;;1.23;;
65047;SDS011;52089;51.362;-2.384;2022-10-15T14:55:37;8.93;;;1.43;;
65047;SDS011;52089;51.362;-2.384;2022-10-15T14:59:26;8.77;;;1.37;;
65047;SDS011;52089;51.362;-2.384;2022-10-15T15:03:17;11.17;;;3.73;;
65047;SDS011;52089;51.362;-2.384;2022-10-15T15:07:01;7.97;;;1.53;;
65047;SDS011;52089;51.362;-2.384;2022-10-15T15:10:47;7.23;;;1.10;;
65047;SDS011;52089;51.362;-2.384;2022-10-15T15:14:29;6.33;;;1.27;;
65047;SDS011;52089;51.362;-2.384;2022-10-15T15:18:11;9.13;;;1.37;;
65047;SDS011;52089;51.362;-2.384;2022-10-15T15:21:53;5.83;;;1.30;;
65047;SDS011;52089;51.362;-2.384;2022-10-15T15:25:36;5.10;;;1.30;;
65047;SDS011;52089;51.362;-2.384;2022-10-15T15:29:19;5.73;;;1.60;;
65047;SDS011;52089;51.362;-2.384;2022-10-15T15:33:01;5.77;;;1.37;;
65047;SDS011;52089;51.362;-2.384;2022-10-15T15:36:43;9.37;;;1.40;;
65047;SDS011;52089;51.362;-2.384;2022-10-15T15:40:25;7.30;;;1.30;;
65047;SDS011;52089;51.362;-2.384;2022-10-15T15:44:10;6.87;;;1.20;;
65047;SDS011;52089;51.362;-2.384;2022-10-15T15:47:52;6.20;;;1.10;;
65047;SDS011;52089;51.362;-2.384;2022-10-15T15:51:34;5.93;;;1.20;;
65047;SDS011;52089;51.362;-2.384;2022-10-15T15:55:16;7.13;;;1.47;;
65047;SDS011;52089;51.362;-2.384;2022-10-15T15:58:58;6.57;;;1.50;;
65047;SDS011;52089;51.362;-2.384;2022-10-15T16:02:40;8.10;;;1.57;;
65047;SDS011;52089;51.362;-2.384;2022-10-15T16:06:21;8.20;;;1.30;;
65047;SDS011;52089;51.362;-2.384;2022-10-15T16:10:03;7.03;;;1.80;;
65047;SDS011;52089;51.362;-2.384;2022-10-15T16:13:48;7.00;;;1.47;;
65047;SDS011;52089;51.362;-2.384;2022-10-15T16:17:30;8.67;;;1.53;;
65047;SDS011;52089;51.362;-2.384;2022-10-15T16:21:12;8.73;;;2.00;;
65047;SDS011;52089;51.362;-2.384;2022-10-15T16:24:54;8.47;;;1.43;;
65047;SDS011;52089;51.362;-2.384;2022-10-15T16:28:36;7.73;;;1.43;;
65047;SDS011;52089;51.362;-2.384;2022-10-15T16:32:17;8.70;;;1.47;;
65047;SDS011;52089;51.362;-2.384;2022-10-15T16:35:59;8.17;;;1.20;;
65047;SDS011;52089;51.362;-2.384;2022-10-15T16:39:41;6.40;;;1.37;;
65047;SDS011;52089;51.362;-2.384;2022-10-15T16:43:23;7.27;;;1.60;;
65047;SDS011;52089;51.362;-2.384;2022-10-15T16:47:04;8.73;;;1.47;;
65047;SDS011;52089;51.362;-2.384;2022-10-15T16:50:46;10.87;;;1.90;;
65047;SDS011;52089;51.362;-2.384;2022-10-15T16:54:28;12.83;;;2.20;;
65047;SDS011;52089;51.362;-2.384;2022-10-15T16:58:10;9.53;;;2.30;;
65047;SDS011;52089;51.362;-2.384;2022-10-15T17:01:52;8.10;;;1.47;;
65047;SDS011;52089;51.362;-2.384;2022-10-15T17:05:34;13.27;;;1.70;;
65047;SDS011;52089;51.362;-2.384;2022-10-15T17:09:15;8.73;;;1.80;;
65047;SDS011;52089;51.362;-2.384;2022-10-15T17:12:57;10.43;;;1.90;;
65047;SDS011;52089;51.362;-2.384;2022-10-15T17:16:41;9.00;;;1.87;;
65047;SDS011;52089;51.362;-2.384;2022-10-15T17:20:23;9.97;;;2.40;;
65047;SDS011;52089;51.362;-2.384;2022-10-15T17:24:12;13.03;;;3.00;;
65047;SDS011;52089;51.362;-2.384;2022-10-15T17:27:54;15.50;;;2.03;;
65047;SDS011;52089;51.362;-2.384;2022-10-15T17:31:37;8.17;;;2.23;;
65047;SDS011;52089;51.362;-2.384;2022-10-15T17:35:18;12.57;;;2.53;;
65047;SDS011;52089;51.362;-2.384;2022-10-15T17:39:01;10.37;;;2.73;;
65047;SDS011;52089;51.362;-2.384;2022-10-15T17:42:44;10.07;;;2.17;;
65047;SDS011;52089;51.362;-2.384;2022-10-15T17:46:26;9.07;;;2.00;;
65047;SDS011;52089;51.362;-2.384;2022-10-15T17:50:10;11.17;;;2.63;;
65047;SDS011;52089;51.362;-2.384;2022-10-15T17:53:54;11.70;;;2.20;;
65047;SDS011;52089;51.362;-2.384;2022-10-15T17:57:37;11.87;;;2.30;;
65047;SDS011;52089;51.362;-2.384;2022-10-15T18:01:23;13.83;;;2.87;;
65047;SDS011;52089;51.362;-2.384;2022-10-15T18:05:35;10.40;;;2.40;;
65047;SDS011;52089;51.362;-2.384;2022-10-15T18:09:17;10.80;;;2.43;;
65047;SDS011;52089;51.362;-2.384;2022-10-15T18:12:59;11.37;;;2.20;;
65047;SDS011;52089;51.362;-2.384;2022-10-15T18:16:41;8.43;;;1.67;;
65047;SDS011;52089;51.362;-2.384;2022-10-15T18:20:24;10.63;;;2.13;;
65047;SDS011;52089;51.362;-2.384;2022-10-15T18:24:06;10.43;;;2.30;;
65047;SDS011;52089;51.362;-2.384;2022-10-15T18:27:47;10.07;;;2.30;;
65047;SDS011;52089;51.362;-2.384;2022-10-15T18:31:29;11.17;;;2.97;;
65047;SDS011;52089;51.362;-2.384;2022-10-15T18:35:11;11.60;;;2.33;;
65047;SDS011;52089;51.362;-2.384;2022-10-15T18:38:53;10.33;;;1.83;;
65047;SDS011;52089;51.362;-2.384;2022-10-15T18:42:37;10.90;;;2.80;;
65047;SDS011;52089;51.362;-2.384;2022-10-15T18:46:19;9.73;;;2.30;;
65047;SDS011;52089;51.362;-2.384;2022-10-15T18:50:04;13.43;;;2.43;;
65047;SDS011;52089;51.362;-2.384;2022-10-15T18:53:47;14.50;;;2.90;;
65047;SDS011;52089;51.362;-2.384;2022-10-15T18:57:29;15.33;;;2.63;;
65047;SDS011;52089;51.362;-2.384;2022-10-15T19:04:54;11.07;;;2.67;;
65047;SDS011;52089;51.362;-2.384;2022-10-15T19:08:35;14.40;;;2.23;;
65047;SDS011;52089;51.362;-2.384;2022-10-15T19:12:17;16.07;;;2.70;;
65047;SDS011;52089;51.362;-2.384;2022-10-15T19:16:00;14.80;;;2.50;;
65047;SDS011;52089;51.362;-2.384;2022-10-15T19:19:42;12.73;;;2.73;;
65047;SDS011;52089;51.362;-2.384;2022-10-15T19:23:30;15.73;;;2.60;;
65047;SDS011;52089;51.362;-2.384;2022-10-15T19:27:12;14.20;;;2.70;;
65047;SDS011;52089;51.362;-2.384;2022-10-15T19:30:57;15.00;;;3.73;;
65047;SDS011;52089;51.362;-2.384;2022-10-15T19:34:41;11.47;;;2.93;;
65047;SDS011;52089;51.362;-2.384;2022-10-15T19:38:23;15.67;;;3.30;;
65047;SDS011;52089;51.362;-2.384;2022-10-15T19:42:06;16.43;;;3.03;;
65047;SDS011;52089;51.362;-2.384;2022-10-15T19:45:49;11.10;;;2.93;;
65047;SDS011;52089;51.362;-2.384;2022-10-15T19:49:31;11.37;;;2.10;;
65047;SDS011;52089;51.362;-2.384;2022-10-15T19:53:14;12.30;;;2.13;;
65047;SDS011;52089;51.362;-2.384;2022-10-15T19:56:59;10.40;;;1.83;;
65047;SDS011;52089;51.362;-2.384;2022-10-15T20:08:42;11.37;;;2.30;;
65047;SDS011;52089;51.362;-2.384;2022-10-15T20:12:24;13.18;;;2.58;;
65047;SDS011;52089;51.362;-2.384;2022-10-15T20:16:07;12.77;;;2.20;;
65047;SDS011;52089;51.362;-2.384;2022-10-15T20:19:50;11.57;;;2.30;;
65047;SDS011;52089;51.362;-2.384;2022-10-15T20:23:33;20.67;;;3.07;;
65047;SDS011;52089;51.362;-2.384;2022-10-15T20:27:14;17.00;;;2.20;;
65047;SDS011;52089;51.362;-2.384;2022-10-15T20:30:56;17.00;;;2.10;;
65047;SDS011;52089;51.362;-2.384;2022-10-15T20:34:38;13.00;;;1.90;;
65047;SDS011;52089;51.362;-2.384;2022-10-15T20:38:20;16.23;;;2.50;;
65047;SDS011;52089;51.362;-2.384;2022-10-15T20:42:02;14.20;;;2.73;;
65047;SDS011;52089;51.362;-2.384;2022-10-15T20:45:44;11.53;;;2.00;;
65047;SDS011;52089;51.362;-2.384;2022-10-15T20:49:31;11.97;;;2.27;;
65047;SDS011;52089;51.362;-2.384;2022-10-15T20:53:16;9.57;;;1.73;;
65047;SDS011;52089;51.362;-2.384;2022-10-15T20:57:00;11.67;;;1.70;;
65047;SDS011;52089;51.362;-2.384;2022-10-15T21:00:43;12.03;;;1.87;;
65047;SDS011;52089;51.362;-2.384;2022-10-15T21:04:25;10.37;;;1.77;;
65047;SDS011;52089;51.362;-2.384;2022-10-15T21:08:07;9.40;;;1.97;;
65047;SDS011;52089;51.362;-2.384;2022-10-15T21:11:49;13.27;;;2.00;;
65047;SDS011;52089;51.362;-2.384;2022-10-15T21:15:31;10.97;;;1.77;;
65047;SDS011;52089;51.362;-2.384;2022-10-15T21:19:13;16.63;;;3.13;;
65047;SDS011;52089;51.362;-2.384;2022-10-15T21:22:55;8.63;;;1.57;;
65047;SDS011;52089;51.362;-2.384;2022-10-15T21:26:37;9.77;;;1.50;;
65047;SDS011;52089;51.362;-2.384;2022-10-15T21:30:25;10.33;;;1.63;;
65047;SDS011;52089;51.362;-2.384;2022-10-15T21:34:07;10.57;;;1.37;;
65047;SDS011;52089;51.362;-2.384;2022-10-15T21:37:49;11.53;;;1.83;;
65047;SDS011;52089;51.362;-2.384;2022-10-15T21:41:32;8.67;;;1.37;;
65047;SDS011;52089;51.362;-2.384;2022-10-15T21:49:00;9.17;;;1.50;;
65047;SDS011;52089;51.362;-2.384;2022-10-15T21:56:38;11.00;;;1.97;;
65047;SDS011;52089;51.362;-2.384;2022-10-15T22:11:46;9.13;;;1.17;;
65047;SDS011;52089;51.362;-2.384;2022-10-15T22:15:28;8.70;;;1.43;;
65047;SDS011;52089;51.362;-2.384;2022-10-15T22:22:55;9.30;;;1.80;;
65047;SDS011;52089;51.362;-2.384;2022-10-15T22:26:39;9.37;;;1.70;;
65047;SDS011;52089;51.362;-2.384;2022-10-15T22:30:23;12.70;;;1.80;;
65047;SDS011;52089;51.362;-2.384;2022-10-15T22:34:08;11.17;;;1.67;;
65047;SDS011;52089;51.362;-2.384;2022-10-15T22:37:49;10.90;;;1.27;;
65047;SDS011;52089;51.362;-2.384;2022-10-15T22:41:36;9.30;;;1.13;;
65047;SDS011;52089;51.362;-2.384;2022-10-15T22:45:20;9.53;;;1.50;;
65047;SDS011;52089;51.362;-2.384;2022-10-15T22:49:04;14.70;;;1.53;;
65047;SDS011;52089;51.362;-2.384;2022-10-15T22:52:50;12.33;;;1.60;;
65047;SDS011;52089;51.362;-2.384;2022-10-15T22:56:32;8.17;;;1.20;;
65047;SDS011;52089;51.362;-2.384;2022-10-15T23:00:14;12.53;;;1.97;;
65047;SDS011;52089;51.362;-2.384;2022-10-15T23:03:57;11.03;;;1.43;;
65047;SDS011;52089;51.362;-2.384;2022-10-15T23:07:42;10.67;;;1.33;;
65047;SDS011;52089;51.362;-2.384;2022-10-15T23:11:25;9.60;;;1.40;;
65047;SDS011;52089;51.362;-2.384;2022-10-15T23:15:09;10.30;;;2.10;;
65047;SDS011;52089;51.362;-2.384;2022-10-15T23:18:51;8.97;;;1.50;;
65047;SDS011;52089;51.362;-2.384;2022-10-15T23:22:34;14.60;;;1.70;;
65047;SDS011;52089;51.362;-2.384;2022-10-15T23:26:16;11.30;;;1.80;;
65047;SDS011;52089;51.362;-2.384;2022-10-15T23:29:58;11.40;;;2.07;;
65047;SDS011;52089;51.362;-2.384;2022-10-15T23:34:00;8.87;;;1.50;;
65047;SDS011;52089;51.362;-2.384;2022-10-15T23:37:44;9.37;;;1.77;;
65047;SDS011;52089;51.362;-2.384;2022-10-15T23:41:26;14.47;;;2.40;;
65047;SDS011;52089;51.362;-2.384;2022-10-15T23:45:08;11.97;;;2.07;;
65047;SDS011;52089;51.362;-2.384;2022-10-15T23:48:51;8.63;;;2.20;;
65047;SDS011;52089;51.362;-2.384;2022-10-15T23:52:32;15.47;;;2.07;;
65047;SDS011;52089;51.362;-2.384;2022-10-15T23:56:15;8.17;;;1.40;;
65047;SDS011;52089;51.362;-2.384;2022-10-15T23:59:57;14.83;;;2.00;;
